Portada
METAR-TAF:

METAR-TAF

Aeropuertos :

Béziers, Francia

latitud: 43-19N, longitud: 003-21E, altitud: 17 m

Observación

El informe se hizo hace 20 minutos, a las 23:30 UTC
Viento 10 kt del sureste, variando entre este y sur-sureste
Temperatura 13°C
Humedad 77%
Presión 1018 hPa
Visibilidad 10 km o más
Escasas nubes a una altura de 1800 ft
Cielo cubierto a una altura de 4100 ft

METAR: LFMU 312330Z AUTO 13010KT 100V160 9999 FEW018 OVC041 13/09 Q1018

Hora: 01:50 (23:50 UTC)


TAF: falta

Observaciones y pronósticos meteorológicos de más de 4000 aeropuertos (mensajes METAR y TAF).

Los puntos amarillos y rojos representan las estaciones disponibles.

Ponga el ratón en el punto deseado para ver el nombre de la estación.

Haga clic para ver las observaciones y los pronósticos meteorológicos.

Para cambiar el mapa : haga clic en los botones verdes con una cruz de color negro para hacer un zoom, en el botón verde con un guión para alejar o en las flechas verdes para mapas adyacentes.


METAR-TAF: